createdAt,value
2022-09-12T00:00:12.162Z,71.23
2022-09-12T00:00:24.202Z,71.29
2022-09-12T00:00:36.114Z,71.33
2022-09-12T00:00:48.079Z,71.66
2022-09-12T00:01:09.277Z,71.51
2022-09-12T00:01:25.446Z,71.64
2022-09-12T00:01:37.465Z,71.91
2022-09-12T00:01:49.483Z,71.92
2022-09-12T00:02:01.456Z,72.06
2022-09-12T00:02:13.482Z,72.34
2022-09-12T00:02:25.587Z,72.30
2022-09-12T00:02:37.562Z,72.33
2022-09-12T00:02:53.900Z,72.39
2022-09-12T00:03:05.817Z,72.46
2022-09-12T00:03:17.724Z,72.43
2022-09-12T00:03:29.629Z,72.63
2022-09-12T00:03:42.287Z,72.48
2022-09-12T00:03:56.648Z,72.48
2022-09-12T00:04:10.941Z,73.16
2022-09-12T00:04:23.130Z,72.54
2022-09-12T00:04:35.128Z,72.76
2022-09-12T00:04:47.201Z,72.59
2022-09-12T00:05:00.221Z,72.54
2022-09-12T00:05:12.684Z,72.66
2022-09-12T00:05:28.520Z,72.61
2022-09-12T00:05:42.431Z,72.45
2022-09-12T00:05:54.319Z,72.36
2022-09-12T00:06:30.603Z,72.34
2022-09-12T00:06:42.595Z,72.18
2022-09-12T00:06:54.521Z,72.25
2022-09-12T00:07:06.469Z,72.29
2022-09-12T00:07:18.360Z,72.35
2022-09-12T00:07:30.277Z,72.30
2022-09-12T00:07:42.196Z,72.13
2022-09-12T00:07:54.244Z,72.02
2022-09-12T00:08:06.172Z,72.09
2022-09-12T00:08:18.070Z,71.95
2022-09-12T00:08:29.945Z,72.07
2022-09-12T00:08:41.887Z,72.23
2022-09-12T00:08:55.209Z,72.06
2022-09-12T00:09:10.863Z,71.98
2022-09-12T00:09:22.772Z,72.01
2022-09-12T00:09:34.656Z,71.88
2022-09-12T00:09:46.602Z,71.92
2022-09-12T00:09:58.521Z,71.84
2022-09-12T00:10:10.431Z,71.72
2022-09-12T00:10:22.525Z,71.76
2022-09-12T00:10:39.004Z,71.72
2022-09-12T00:10:50.921Z,71.73
2022-09-12T00:11:07.984Z,71.99
2022-09-12T00:11:19.998Z,72.01
2022-09-12T00:11:32.048Z,72.02
2022-09-12T00:11:45.986Z,72.03
2022-09-12T00:11:57.865Z,72.08
2022-09-12T00:12:09.771Z,72.04
2022-09-12T00:12:21.660Z,72.17
2022-09-12T00:12:33.602Z,72.01
2022-09-12T00:12:45.688Z,72.11
2022-09-12T00:12:57.602Z,71.91
2022-09-12T00:13:10.672Z,71.97
2022-09-12T00:13:22.627Z,72.11
2022-09-12T00:13:38.390Z,72.10
2022-09-12T00:14:00.433Z,72.24
2022-09-12T00:14:15.778Z,72.23
2022-09-12T00:14:27.676Z,72.26
2022-09-12T00:14:39.596Z,72.25
2022-09-12T00:14:51.535Z,72.26
2022-09-12T00:15:04.182Z,72.37
2022-09-12T00:15:16.064Z,72.40
2022-09-12T00:15:27.974Z,72.54
2022-09-12T00:15:41.381Z,72.27
2022-09-12T00:15:53.272Z,72.32
2022-09-12T00:16:05.673Z,72.64
2022-09-12T00:16:25.205Z,72.69
2022-09-12T00:16:37.979Z,72.93
2022-09-12T00:16:49.963Z,72.95
2022-09-12T00:17:02.382Z,72.95
2022-09-12T00:17:14.578Z,73.16
2022-09-12T00:17:26.520Z,73.04
2022-09-12T00:17:39.399Z,73.03
2022-09-12T00:17:51.323Z,73.17
2022-09-12T00:18:03.313Z,74.32
2022-09-12T00:18:17.019Z,74.60
2022-09-12T00:18:28.927Z,74.92
2022-09-12T00:18:40.810Z,74.65
2022-09-12T00:18:53.654Z,74.58
2022-09-12T00:19:06.739Z,74.66
2022-09-12T00:19:18.993Z,74.49
2022-09-12T00:19:30.863Z,74.58
2022-09-12T00:19:42.942Z,74.62
2022-09-12T00:19:55.768Z,74.60
2022-09-12T00:20:09.962Z,74.50
2022-09-12T00:20:21.886Z,74.31
2022-09-12T00:20:33.836Z,74.22
2022-09-12T00:20:47.263Z,74.14
2022-09-12T00:21:04.640Z,74.32
2022-09-12T00:21:18.447Z,74.15
2022-09-12T00:21:32.483Z,74.09
2022-09-12T00:21:44.792Z,74.17
2022-09-12T00:21:56.773Z,74.16
2022-09-12T00:22:08.742Z,74.13
2022-09-12T00:22:20.653Z,74.03
2022-09-12T00:22:32.573Z,74.24
2022-09-12T00:22:44.562Z,74.14
2022-09-12T00:22:56.532Z,74.10
2022-09-12T00:23:08.509Z,73.96
2022-09-12T00:23:20.459Z,73.81
2022-09-12T00:23:33.136Z,73.78
2022-09-12T00:23:45.670Z,73.70
2022-09-12T00:23:57.928Z,73.59
2022-09-12T00:24:11.247Z,73.76
2022-09-12T00:24:23.237Z,73.79
2022-09-12T00:24:35.157Z,73.65
2022-09-12T00:24:47.108Z,73.67
2022-09-12T00:24:59.024Z,73.85
2022-09-12T00:25:11.115Z,73.97
2022-09-12T00:25:23.039Z,73.92
2022-09-12T00:25:34.969Z,73.83
2022-09-12T00:25:48.401Z,73.87
2022-09-12T00:26:00.354Z,73.80
2022-09-12T00:26:13.143Z,73.51
2022-09-12T00:26:25.115Z,73.86
2022-09-12T00:26:37.176Z,73.51
2022-09-12T00:26:49.247Z,73.62
2022-09-12T00:27:01.157Z,73.43
2022-09-12T00:27:13.023Z,73.55
2022-09-12T00:27:24.921Z,73.74
2022-09-12T00:27:36.818Z,73.70
2022-09-12T00:27:48.716Z,73.56
2022-09-12T00:28:00.648Z,73.63
2022-09-12T00:28:14.501Z,73.49
2022-09-12T00:28:26.985Z,73.50
2022-09-12T00:28:40.807Z,73.42
2022-09-12T00:28:52.966Z,73.57
2022-09-12T00:29:04.863Z,73.66
2022-09-12T00:29:19.638Z,73.35
2022-09-12T00:29:31.663Z,73.52
2022-09-12T00:29:43.581Z,73.57
2022-09-12T00:29:55.510Z,73.46
2022-09-12T00:30:07.911Z,73.67
2022-09-12T00:30:19.806Z,73.71
2022-09-12T00:30:31.894Z,73.50
2022-09-12T00:30:48.242Z,73.53
2022-09-12T00:31:00.331Z,73.56
2022-09-12T00:31:16.148Z,73.75
2022-09-12T00:31:28.494Z,73.70
2022-09-12T00:31:40.484Z,73.51
2022-09-12T00:31:52.501Z,73.54
2022-09-12T00:32:04.736Z,73.65
2022-09-12T00:32:16.737Z,73.62
2022-09-12T00:32:28.745Z,73.93
2022-09-12T00:32:40.656Z,73.74
2022-09-12T00:32:54.646Z,73.75
2022-09-12T00:33:06.527Z,73.88
2022-09-12T00:33:18.508Z,73.64
2022-09-12T00:33:30.936Z,74.00
2022-09-12T00:33:43.639Z,73.89
2022-09-12T00:33:58.665Z,73.96
2022-09-12T00:34:11.056Z,74.01
2022-09-12T00:34:22.976Z,74.05
2022-09-12T00:34:36.052Z,73.90
2022-09-12T00:34:47.959Z,73.71
2022-09-12T00:35:00.779Z,73.75
2022-09-12T00:35:12.916Z,73.86
2022-09-12T00:35:24.794Z,73.74
2022-09-12T00:35:50.020Z,73.91
2022-09-12T00:36:15.162Z,73.79
2022-09-12T00:36:29.253Z,73.74
2022-09-12T00:36:41.405Z,74.05
2022-09-12T00:36:53.318Z,73.81
2022-09-12T00:37:05.208Z,74.17
2022-09-12T00:37:17.622Z,73.85
2022-09-12T00:37:29.606Z,74.03
2022-09-12T00:37:41.760Z,74.05
2022-09-12T00:37:53.660Z,74.03
2022-09-12T00:38:05.542Z,74.19
2022-09-12T00:38:17.476Z,74.17
2022-09-12T00:38:29.408Z,74.33
2022-09-12T00:38:42.655Z,74.38
2022-09-12T00:38:54.817Z,74.51
2022-09-12T00:39:07.732Z,74.41
2022-09-12T00:39:19.735Z,74.83
2022-09-12T00:39:31.647Z,74.78
2022-09-12T00:39:43.638Z,74.83
2022-09-12T00:39:55.558Z,74.64
2022-09-12T00:40:07.949Z,74.79
2022-09-12T00:40:19.864Z,74.75
2022-09-12T00:40:31.739Z,74.64
2022-09-12T00:40:44.668Z,74.70
2022-09-12T00:40:56.539Z,74.84
2022-09-12T00:41:16.953Z,74.59
2022-09-12T00:41:34.453Z,74.52
2022-09-12T00:41:46.507Z,74.50
2022-09-12T00:41:58.693Z,74.34
2022-09-12T00:42:12.682Z,74.18
2022-09-12T00:42:24.546Z,74.42
2022-09-12T00:42:36.411Z,74.52
2022-09-12T00:42:48.272Z,74.47
2022-09-12T00:43:00.138Z,74.22
2022-09-12T00:43:13.859Z,74.36
2022-09-12T00:43:43.592Z,74.72
2022-09-12T00:44:01.276Z,74.85
2022-09-12T00:44:13.194Z,74.76
2022-09-12T00:44:25.032Z,74.73
2022-09-12T00:44:36.899Z,75.21
2022-09-12T00:44:51.608Z,74.91
2022-09-12T00:45:03.843Z,74.83
2022-09-12T00:45:24.308Z,74.89
2022-09-12T00:45:36.283Z,74.87
2022-09-12T00:45:48.219Z,74.77
2022-09-12T00:46:04.661Z,74.56
2022-09-12T00:46:29.135Z,74.63
2022-09-12T00:46:56.728Z,74.48
2022-09-12T00:47:11.588Z,74.37
2022-09-12T00:47:34.317Z,74.24
2022-09-12T00:47:46.415Z,74.21
2022-09-12T00:48:03.549Z,74.06
2022-09-12T00:48:26.670Z,74.23
2022-09-12T00:48:43.954Z,74.03
2022-09-12T00:49:00.709Z,74.02
2022-09-12T00:49:19.545Z,73.78
2022-09-12T00:49:51.674Z,73.86
2022-09-12T00:50:13.833Z,73.62
2022-09-12T00:50:25.910Z,73.80
2022-09-12T00:50:37.798Z,73.77
2022-09-12T00:50:50.105Z,74.05
2022-09-12T00:51:02.145Z,73.90
2022-09-12T00:51:14.886Z,73.96
2022-09-12T00:51:30.412Z,73.99
2022-09-12T00:51:55.390Z,73.72
2022-09-12T00:52:09.704Z,73.74
2022-09-12T00:52:44.732Z,73.85
2022-09-12T00:53:07.032Z,73.91
2022-09-12T00:53:19.007Z,73.73
2022-09-12T00:53:31.332Z,73.84
2022-09-12T00:53:47.696Z,74.02
2022-09-12T00:54:02.632Z,74.00
2022-09-12T00:54:20.821Z,74.27
2022-09-12T00:54:39.066Z,74.50
2022-09-12T00:54:57.019Z,74.93
2022-09-12T00:55:24.286Z,74.79
2022-09-12T00:55:40.943Z,74.91
2022-09-12T00:55:53.825Z,74.79
2022-09-12T00:56:06.325Z,74.83
2022-09-12T00:56:19.755Z,75.32
2022-09-12T00:56:32.586Z,75.55
2022-09-12T00:56:46.853Z,75.81
2022-09-12T00:57:03.817Z,75.66
2022-09-12T00:57:18.067Z,75.70
2022-09-12T00:57:34.668Z,75.58
2022-09-12T00:57:49.200Z,75.43
2022-09-12T00:58:14.570Z,75.28
2022-09-12T00:58:34.451Z,75.68
2022-09-12T00:58:57.819Z,75.46
2022-09-12T00:59:15.232Z,75.44
2022-09-12T00:59:36.723Z,75.39
2022-09-12T00:59:57.524Z,75.21
2022-09-12T01:00:16.312Z,75.23
2022-09-12T01:00:29.408Z,75.41
2022-09-12T01:00:41.622Z,75.55
2022-09-12T01:00:54.011Z,75.59
2022-09-12T01:01:06.415Z,75.62
2022-09-12T01:01:19.263Z,75.64
2022-09-12T01:01:32.791Z,75.52
2022-09-12T01:01:48.417Z,75.63
2022-09-12T01:02:01.087Z,75.57
2022-09-12T01:02:13.182Z,75.52
2022-09-12T01:02:26.451Z,75.63
2022-09-12T01:02:38.523Z,75.50
2022-09-12T01:02:56.602Z,75.43
2022-09-12T01:03:14.598Z,75.28
2022-09-12T01:03:26.970Z,75.41
2022-09-12T01:03:38.939Z,75.23
2022-09-12T01:03:51.153Z,75.24
2022-09-12T01:04:03.728Z,75.13
2022-09-12T01:04:17.212Z,75.12
2022-09-12T01:04:30.398Z,75.07
2022-09-12T01:04:44.525Z,75.27
2022-09-12T01:04:56.579Z,75.25
2022-09-12T01:05:09.152Z,75.23
2022-09-12T01:05:23.616Z,75.13
2022-09-12T01:05:39.933Z,75.00
2022-09-12T01:06:14.090Z,75.39
2022-09-12T01:06:28.921Z,75.26
2022-09-12T01:06:44.959Z,75.42
2022-09-12T01:06:58.344Z,75.13
2022-09-12T01:07:11.574Z,75.37
2022-09-12T01:07:23.918Z,75.39
2022-09-12T01:07:40.009Z,75.72
2022-09-12T01:07:53.052Z,75.93
2022-09-12T01:08:06.256Z,75.85
2022-09-12T01:08:18.640Z,75.74
2022-09-12T01:08:32.208Z,75.66
2022-09-12T01:08:46.794Z,75.81
2022-09-12T01:08:59.695Z,75.90
2022-09-12T01:09:16.901Z,76.34
2022-09-12T01:09:31.631Z,76.19
2022-09-12T01:09:45.810Z,76.29
2022-09-12T01:09:57.907Z,76.25
2022-09-12T01:10:10.940Z,76.21
2022-09-12T01:10:24.280Z,75.96
2022-09-12T01:10:38.807Z,76.22
2022-09-12T01:10:50.867Z,75.98
2022-09-12T01:11:04.326Z,75.92
2022-09-12T01:11:16.733Z,75.98
2022-09-12T01:11:28.779Z,75.96
2022-09-12T01:11:41.263Z,75.79
2022-09-12T01:11:53.612Z,75.79
2022-09-12T01:12:06.097Z,75.67
2022-09-12T01:12:18.105Z,75.67
2022-09-12T01:12:31.248Z,75.69
2022-09-12T01:12:44.130Z,75.71
2022-09-12T01:12:56.048Z,75.73
2022-09-12T01:13:10.076Z,75.78
2022-09-12T01:13:22.483Z,75.77
2022-09-12T01:13:35.667Z,75.70
2022-09-12T01:13:48.528Z,76.26
2022-09-12T01:14:00.664Z,76.26
2022-09-12T01:14:13.766Z,76.29
2022-09-12T01:14:25.783Z,76.01
2022-09-12T01:14:38.803Z,76.02
2022-09-12T01:14:50.710Z,75.89
2022-09-12T01:15:02.781Z,76.06
2022-09-12T01:15:15.061Z,76.30
2022-09-12T01:15:27.103Z,76.21
2022-09-12T01:15:40.340Z,76.53
2022-09-12T01:15:52.651Z,76.57
2022-09-12T01:16:06.268Z,76.64
2022-09-12T01:16:18.387Z,76.85
2022-09-12T01:16:30.779Z,76.71
2022-09-12T01:16:43.652Z,76.81
2022-09-12T01:16:55.901Z,76.60
2022-09-12T01:17:12.005Z,76.50
2022-09-12T01:17:28.768Z,76.56
2022-09-12T01:18:07.714Z,76.39
2022-09-12T01:18:32.494Z,76.63
2022-09-12T01:18:50.319Z,76.68
2022-09-12T01:19:17.780Z,76.38
2022-09-12T01:19:31.715Z,76.78
2022-09-12T01:19:46.256Z,76.68
2022-09-12T01:20:29.351Z,76.59
2022-09-12T01:21:02.818Z,76.67
2022-09-12T01:21:25.561Z,76.70
2022-09-12T01:21:55.557Z,76.88
2022-09-12T01:22:33.703Z,77.20
2022-09-12T01:22:54.448Z,76.98
2022-09-12T01:23:33.058Z,77.07
2022-09-12T01:24:12.427Z,76.89
2022-09-12T01:24:54.404Z,77.01
2022-09-12T01:25:31.042Z,76.96
2022-09-12T01:26:19.995Z,77.16
2022-09-12T01:26:49.847Z,77.42
2022-09-12T01:27:16.583Z,77.49
2022-09-12T01:27:34.293Z,77.38
2022-09-12T01:28:01.163Z,77.53
2022-09-12T01:28:25.167Z,77.75
2022-09-12T01:28:51.958Z,77.71
2022-09-12T01:29:34.727Z,77.62
2022-09-12T01:30:07.573Z,78.24
2022-09-12T01:30:34.534Z,77.98
2022-09-12T01:31:03.820Z,77.84
2022-09-12T01:31:30.864Z,78.69
2022-09-12T01:31:52.780Z,79.15
2022-09-12T01:32:18.872Z,79.06
2022-09-12T01:32:55.512Z,78.74
2022-09-12T01:33:37.958Z,78.35
2022-09-12T01:34:19.013Z,77.92
2022-09-12T01:34:58.958Z,77.79
2022-09-12T01:35:25.833Z,77.42
2022-09-12T01:36:05.457Z,77.35
2022-09-12T01:36:34.408Z,77.20
2022-09-12T01:36:51.281Z,77.26
2022-09-12T01:37:11.907Z,76.99
2022-09-12T01:37:34.708Z,76.85
2022-09-12T01:38:05.982Z,76.92
2022-09-12T01:38:26.603Z,77.23
2022-09-12T01:39:02.083Z,77.16
2022-09-12T01:39:23.385Z,77.15
2022-09-12T01:39:38.027Z,77.47
2022-09-12T01:40:03.274Z,77.48
2022-09-12T01:40:29.425Z,77.29
2022-09-12T01:40:53.080Z,77.10
2022-09-12T01:41:38.910Z,77.15
2022-09-12T01:42:01.542Z,77.19
2022-09-12T01:42:25.809Z,77.68
2022-09-12T01:42:41.941Z,77.67
2022-09-12T01:43:12.088Z,77.50
2022-09-12T01:43:32.975Z,77.50
2022-09-12T01:43:49.505Z,77.31
2022-09-12T01:44:04.015Z,77.14
2022-09-12T01:44:34.278Z,77.27
2022-09-12T01:45:20.484Z,77.27
2022-09-12T01:45:46.090Z,77.21
2022-09-12T01:46:15.635Z,77.21
2022-09-12T01:46:39.369Z,77.05
2022-09-12T01:47:02.297Z,76.86
2022-09-12T01:47:24.170Z,76.83
2022-09-12T01:47:45.588Z,76.66
2022-09-12T01:48:26.808Z,76.82
2022-09-12T01:48:57.223Z,76.47
2022-09-12T01:49:24.472Z,76.25
2022-09-12T01:49:46.278Z,76.32
2022-09-12T01:50:10.166Z,76.20
2022-09-12T01:50:30.085Z,76.94
2022-09-12T01:50:52.762Z,76.55
2022-09-12T01:51:15.388Z,76.37
2022-09-12T01:51:39.504Z,76.50
2022-09-12T01:52:00.149Z,76.34
2022-09-12T01:52:24.964Z,76.42
2022-09-12T01:52:58.790Z,76.13
2022-09-12T01:53:19.052Z,76.29
2022-09-12T01:53:38.195Z,76.12
2022-09-12T01:54:01.626Z,76.16
2022-09-12T01:54:21.324Z,76.06
2022-09-12T01:54:40.138Z,75.94
2022-09-12T01:54:56.109Z,76.01
2022-09-12T01:55:13.242Z,76.23
2022-09-12T01:55:40.303Z,76.18
2022-09-12T01:55:56.314Z,76.19
2022-09-12T01:56:22.366Z,76.10
2022-09-12T01:56:38.952Z,76.06
2022-09-12T01:56:55.375Z,75.88
2022-09-12T01:57:32.120Z,75.96
2022-09-12T01:57:50.092Z,76.02
2022-09-12T01:58:07.193Z,76.10
2022-09-12T01:58:26.226Z,76.15
2022-09-12T01:58:50.129Z,76.09
2022-09-12T01:59:18.798Z,76.11
2022-09-12T01:59:35.747Z,75.96
2022-09-12T01:59:51.824Z,76.79
2022-09-12T02:00:09.071Z,76.59
2022-09-12T02:00:21.295Z,76.47
2022-09-12T02:00:37.894Z,76.55
2022-09-12T02:01:04.796Z,76.73
2022-09-12T02:01:33.009Z,76.73
2022-09-12T02:02:02.800Z,76.88
2022-09-12T02:02:25.705Z,76.54
2022-09-12T02:02:43.682Z,76.70
2022-09-12T02:03:10.263Z,76.62
2022-09-12T02:03:30.949Z,76.50
2022-09-12T02:03:51.603Z,76.25
2022-09-12T02:04:11.544Z,76.26
2022-09-12T02:04:32.284Z,76.29
2022-09-12T02:04:54.668Z,76.11
2022-09-12T02:05:14.840Z,76.05
2022-09-12T02:05:50.387Z,75.97
2022-09-12T02:06:17.877Z,76.17
2022-09-12T02:06:36.466Z,76.28
2022-09-12T02:06:57.276Z,76.25
2022-09-12T02:07:18.257Z,76.16
2022-09-12T02:07:41.475Z,76.22
2022-09-12T02:08:15.397Z,76.04
2022-09-12T02:08:35.566Z,75.93
2022-09-12T02:08:58.825Z,75.94
2022-09-12T02:09:21.205Z,75.81
2022-09-12T02:09:40.755Z,75.66
2022-09-12T02:10:03.087Z,75.56
2022-09-12T02:10:20.671Z,75.67
2022-09-12T02:10:41.751Z,75.67
2022-09-12T02:10:57.899Z,75.61
2022-09-12T02:11:11.809Z,75.54
2022-09-12T02:11:23.855Z,75.56
2022-09-12T02:11:40.829Z,75.66
2022-09-12T02:11:57.871Z,75.76
2022-09-12T02:12:14.603Z,75.68
2022-09-12T02:12:35.140Z,75.69
2022-09-12T02:13:02.816Z,75.52
2022-09-12T02:13:42.116Z,75.68
2022-09-12T02:14:20.185Z,75.83
2022-09-12T02:14:36.988Z,75.91
2022-09-12T02:14:53.607Z,76.02
2022-09-12T02:15:08.993Z,75.90
2022-09-12T02:15:26.863Z,76.16
2022-09-12T02:15:48.624Z,75.94
2022-09-12T02:16:10.677Z,75.77
2022-09-12T02:16:36.951Z,75.46
2022-09-12T02:16:55.284Z,75.60
2022-09-12T02:17:12.002Z,75.55
2022-09-12T02:17:26.243Z,76.13
2022-09-12T02:17:44.184Z,76.35
2022-09-12T02:18:01.013Z,76.46
2022-09-12T02:18:18.004Z,76.48
2022-09-12T02:18:33.832Z,76.21
2022-09-12T02:18:52.151Z,76.08
2022-09-12T02:19:10.333Z,76.05
2022-09-12T02:19:33.922Z,75.96
2022-09-12T02:19:51.371Z,75.96
2022-09-12T02:20:17.576Z,75.96
2022-09-12T02:20:48.002Z,75.96
2022-09-12T02:21:04.161Z,76.09
2022-09-12T02:21:22.538Z,75.84
2022-09-12T02:21:38.057Z,76.07
2022-09-12T02:21:54.045Z,76.09
2022-09-12T02:22:07.776Z,75.87
2022-09-12T02:22:22.655Z,75.85
2022-09-12T02:22:37.128Z,75.87
2022-09-12T02:22:50.905Z,76.14
2022-09-12T02:23:08.358Z,76.09
2022-09-12T02:23:26.355Z,76.20
2022-09-12T02:23:43.459Z,76.23
2022-09-12T02:23:59.280Z,76.08
2022-09-12T02:24:14.702Z,76.15
2022-09-12T02:24:33.043Z,76.13
2022-09-12T02:24:51.601Z,76.38
2022-09-12T02:25:07.283Z,76.56
2022-09-12T02:25:21.228Z,76.28
2022-09-12T02:25:36.354Z,76.39
2022-09-12T02:25:52.257Z,76.36
2022-09-12T02:26:12.510Z,76.24
2022-09-12T02:26:31.008Z,76.28
2022-09-12T02:26:59.627Z,76.44
2022-09-12T02:27:16.515Z,76.68
2022-09-12T02:27:44.492Z,76.39
2022-09-12T02:28:06.435Z,76.42
2022-09-12T02:28:27.339Z,76.42
2022-09-12T02:28:42.820Z,76.23
2022-09-12T02:28:54.744Z,76.38
2022-09-12T02:29:06.768Z,76.41
2022-09-12T02:29:18.688Z,76.32
2022-09-12T02:29:30.795Z,76.19
2022-09-12T02:29:47.312Z,76.13
2022-09-12T02:29:59.953Z,76.07
2022-09-12T02:30:14.549Z,75.79
2022-09-12T02:30:31.608Z,76.09
2022-09-12T02:30:56.210Z,76.07
2022-09-12T02:31:24.254Z,76.27
2022-09-12T02:31:46.599Z,76.32
2022-09-12T02:32:08.880Z,76.65
2022-09-12T02:32:42.235Z,76.91
2022-09-12T02:33:01.203Z,77.04
2022-09-12T02:33:27.160Z,77.25
2022-09-12T02:33:49.263Z,77.32
2022-09-12T02:34:14.935Z,77.15
2022-09-12T02:34:35.801Z,77.05
2022-09-12T02:35:01.127Z,76.54
2022-09-12T02:35:39.306Z,76.74
2022-09-12T02:36:37.780Z,77.05
2022-09-12T02:36:50.081Z,76.80
2022-09-12T02:37:39.299Z,76.75
2022-09-12T02:38:11.270Z,76.47
2022-09-12T02:38:44.359Z,76.45
2022-09-12T02:38:56.799Z,76.41
2022-09-12T02:39:09.626Z,76.56
2022-09-12T02:39:21.686Z,76.71
2022-09-12T02:39:33.861Z,76.77
2022-09-12T02:39:46.115Z,76.86
2022-09-12T02:39:59.370Z,76.98
2022-09-12T02:40:11.625Z,76.87
2022-09-12T02:40:23.653Z,76.82
2022-09-12T02:40:36.093Z,76.76
2022-09-12T02:40:48.120Z,76.77
2022-09-12T02:41:00.140Z,76.72
2022-09-12T02:41:15.584Z,76.67
2022-09-12T02:41:27.793Z,76.79
2022-09-12T02:41:39.717Z,76.94
2022-09-12T02:41:52.960Z,76.89
2022-09-12T02:42:05.785Z,77.10
2022-09-12T02:42:17.668Z,76.93
2022-09-12T02:42:29.663Z,77.02
2022-09-12T02:42:41.913Z,77.28
2022-09-12T02:42:53.881Z,77.42
2022-09-12T02:43:07.058Z,77.41
2022-09-12T02:43:18.953Z,77.48
2022-09-12T02:43:31.027Z,77.38
2022-09-12T02:43:43.301Z,77.19
2022-09-12T02:43:55.751Z,77.26
2022-09-12T02:44:07.701Z,77.46
2022-09-12T02:44:20.259Z,77.61
2022-09-12T02:44:34.489Z,77.63
2022-09-12T02:44:46.584Z,77.41
2022-09-12T02:44:58.644Z,77.43
2022-09-12T02:45:12.380Z,77.81
2022-09-12T02:45:24.519Z,77.53
2022-09-12T02:45:37.028Z,77.60
2022-09-12T02:45:49.172Z,77.71
2022-09-12T02:46:01.152Z,77.79
2022-09-12T02:46:20.448Z,77.71
2022-09-12T02:46:40.827Z,78.18
2022-09-12T02:46:56.924Z,78.26
2022-09-12T02:47:14.995Z,78.24
2022-09-12T02:47:45.844Z,78.06
2022-09-12T02:47:57.655Z,78.03
2022-09-12T02:48:14.809Z,77.95
2022-09-12T02:48:31.656Z,77.92
2022-09-12T02:48:43.759Z,77.72
2022-09-12T02:48:56.624Z,77.71
2022-09-12T02:49:09.572Z,77.68
2022-09-12T02:49:22.217Z,77.52
2022-09-12T02:49:34.119Z,77.40
2022-09-12T02:49:47.232Z,77.57
2022-09-12T02:50:00.058Z,77.71
2022-09-12T02:50:12.975Z,77.58
2022-09-12T02:50:25.127Z,77.46
2022-09-12T02:50:37.855Z,77.49
2022-09-12T02:50:49.916Z,77.44
2022-09-12T02:51:02.443Z,77.64
2022-09-12T02:51:14.720Z,77.71
2022-09-12T02:51:27.120Z,77.61
2022-09-12T02:51:40.324Z,77.70
2022-09-12T02:51:52.392Z,77.63
2022-09-12T02:52:04.548Z,77.68
2022-09-12T02:52:16.872Z,77.69
2022-09-12T02:52:29.507Z,77.42
2022-09-12T02:52:42.873Z,77.52
2022-09-12T02:52:59.638Z,77.41
2022-09-12T02:53:11.689Z,77.44
2022-09-12T02:53:23.722Z,77.31
2022-09-12T02:53:36.765Z,77.41
2022-09-12T02:53:49.391Z,77.28
2022-09-12T02:54:03.442Z,77.46
2022-09-12T02:54:17.753Z,77.45
2022-09-12T02:54:30.988Z,77.50
2022-09-12T02:54:43.513Z,77.32
2022-09-12T02:54:57.347Z,77.98
2022-09-12T02:55:12.245Z,78.10
2022-09-12T02:55:24.674Z,78.28
2022-09-12T02:55:39.017Z,78.28
2022-09-12T02:55:51.735Z,78.25
2022-09-12T02:56:07.967Z,78.12
2022-09-12T02:56:28.956Z,78.06
2022-09-12T02:56:43.596Z,77.97
2022-09-12T02:56:55.513Z,77.83
2022-09-12T02:57:22.544Z,77.77
2022-09-12T02:57:35.037Z,77.81
2022-09-12T02:57:46.937Z,77.76
2022-09-12T02:58:02.027Z,77.65
2022-09-12T02:58:20.713Z,77.57
2022-09-12T02:58:33.080Z,77.55
2022-09-12T02:58:45.552Z,77.46
2022-09-12T02:59:08.204Z,77.39
2022-09-12T02:59:22.939Z,77.46
2022-09-12T02:59:34.851Z,77.33
2022-09-12T02:59:48.211Z,77.33
2022-09-12T03:00:01.382Z,77.33
2022-09-12T03:00:14.080Z,77.23
2022-09-12T03:00:27.099Z,76.96
2022-09-12T03:01:06.980Z,77.28
2022-09-12T03:01:36.636Z,77.04
2022-09-12T03:02:03.545Z,77.13
2022-09-12T03:02:41.611Z,77.09
2022-09-12T03:03:02.960Z,77.64
2022-09-12T03:03:33.183Z,77.47
2022-09-12T03:03:59.991Z,77.58
2022-09-12T03:04:17.845Z,77.52
2022-09-12T03:04:57.896Z,77.36
2022-09-12T03:05:18.896Z,77.34
2022-09-12T03:05:40.136Z,77.26
2022-09-12T03:06:00.291Z,77.44
2022-09-12T03:06:48.743Z,77.77
2022-09-12T03:07:03.339Z,77.43
2022-09-12T03:07:42.440Z,77.31
2022-09-12T03:08:21.660Z,77.38
2022-09-12T03:08:39.389Z,77.27
2022-09-12T03:09:00.189Z,77.21
2022-09-12T03:09:30.275Z,77.33
2022-09-12T03:09:54.272Z,77.19
2022-09-12T03:10:08.114Z,77.06
2022-09-12T03:10:51.924Z,77.27
2022-09-12T03:11:11.050Z,77.33
2022-09-12T03:11:47.009Z,77.47
2022-09-12T03:12:19.315Z,77.14
2022-09-12T03:13:00.383Z,77.19
2022-09-12T03:13:30.197Z,77.19
2022-09-12T03:14:16.105Z,77.05
2022-09-12T03:14:35.585Z,77.13
2022-09-12T03:14:53.342Z,77.22
2022-09-12T03:15:17.235Z,77.74
2022-09-12T03:15:37.077Z,77.75
2022-09-12T03:16:28.203Z,77.66
2022-09-12T03:17:22.211Z,77.40
2022-09-12T03:18:06.693Z,77.25
2022-09-12T03:18:42.027Z,77.03
2022-09-12T03:19:06.320Z,77.05
2022-09-12T03:19:42.360Z,77.28
2022-09-12T03:20:09.472Z,77.21
2022-09-12T03:20:33.539Z,77.28
2022-09-12T03:20:58.213Z,77.37
2022-09-12T03:21:10.170Z,77.75
2022-09-12T03:21:40.388Z,77.29
2022-09-12T03:21:54.863Z,77.28
2022-09-12T03:22:13.385Z,77.47
2022-09-12T03:22:33.340Z,77.71
2022-09-12T03:22:59.440Z,77.84
2022-09-12T03:23:36.218Z,77.86
2022-09-12T03:23:54.096Z,77.73
2022-09-12T03:24:21.063Z,77.81
2022-09-12T03:24:38.064Z,77.73
2022-09-12T03:25:17.119Z,77.93
2022-09-12T03:25:53.202Z,77.65
2022-09-12T03:26:18.227Z,77.50
2022-09-12T03:26:40.158Z,77.71
2022-09-12T03:27:00.831Z,77.63
2022-09-12T03:27:45.821Z,77.78
2022-09-12T03:28:08.002Z,77.73
2022-09-12T03:28:22.076Z,77.59
2022-09-12T03:28:35.742Z,77.53
2022-09-12T03:28:49.409Z,77.48
2022-09-12T03:29:03.483Z,77.29
2022-09-12T03:29:16.126Z,77.08
2022-09-12T03:29:28.940Z,77.28
2022-09-12T03:29:43.349Z,77.14
2022-09-12T03:29:56.236Z,77.08
2022-09-12T03:30:10.823Z,77.25
2022-09-12T03:30:28.498Z,77.16
2022-09-12T03:30:42.737Z,77.62
2022-09-12T03:30:56.524Z,77.68
2022-09-12T03:31:14.056Z,77.52
2022-09-12T03:31:25.990Z,77.41
2022-09-12T03:31:39.341Z,77.33
2022-09-12T03:31:54.367Z,77.10
2022-09-12T03:32:07.404Z,77.15
2022-09-12T03:32:19.480Z,77.38
2022-09-12T03:32:41.254Z,77.49
2022-09-12T03:32:55.152Z,77.37
2022-09-12T03:33:14.184Z,77.37
2022-09-12T03:33:26.734Z,77.17
2022-09-12T03:33:38.674Z,77.25
2022-09-12T03:33:50.728Z,77.23
2022-09-12T03:34:02.847Z,77.18
2022-09-12T03:34:14.718Z,77.04
2022-09-12T03:34:27.993Z,76.94
2022-09-12T03:34:43.004Z,76.81
2022-09-12T03:34:54.863Z,76.82
2022-09-12T03:35:07.474Z,76.91
2022-09-12T03:35:23.359Z,76.75
2022-09-12T03:35:35.338Z,76.73
2022-09-12T03:35:48.614Z,76.73
2022-09-12T03:36:00.508Z,76.65
2022-09-12T03:36:22.467Z,77.01
2022-09-12T03:36:34.340Z,77.31
2022-09-12T03:36:46.861Z,77.23
2022-09-12T03:36:59.433Z,77.16
2022-09-12T03:37:11.511Z,77.28
2022-09-12T03:37:23.427Z,77.17
2022-09-12T03:37:35.360Z,76.88
2022-09-12T03:37:48.728Z,76.87
2022-09-12T03:38:00.673Z,77.06
2022-09-12T03:38:13.109Z,77.04
2022-09-12T03:38:25.281Z,77.12
2022-09-12T03:38:37.228Z,77.32
2022-09-12T03:38:49.639Z,77.24
2022-09-12T03:39:01.535Z,77.50
2022-09-12T03:39:13.559Z,77.36
2022-09-12T03:39:26.804Z,77.50
2022-09-12T03:39:39.276Z,77.47
2022-09-12T03:39:51.228Z,77.45
2022-09-12T03:40:05.739Z,77.34
2022-09-12T03:40:18.016Z,77.14
2022-09-12T03:40:29.913Z,77.22
2022-09-12T03:40:42.140Z,77.18
2022-09-12T03:40:54.949Z,76.89
2022-09-12T03:41:07.273Z,77.10
2022-09-12T03:41:19.643Z,77.33
2022-09-12T03:41:31.643Z,77.46
2022-09-12T03:41:43.593Z,77.40
2022-09-12T03:41:56.188Z,77.55
2022-09-12T03:42:08.076Z,77.56
2022-09-12T03:42:20.211Z,77.46
2022-09-12T03:42:32.157Z,77.67
2022-09-12T03:42:44.328Z,77.51
2022-09-12T03:42:56.223Z,77.36
2022-09-12T03:43:09.182Z,77.23
2022-09-12T03:43:21.100Z,77.51
2022-09-12T03:43:32.969Z,77.51
2022-09-12T03:43:45.925Z,77.34
2022-09-12T03:43:57.817Z,77.35
2022-09-12T03:44:09.734Z,77.88
2022-09-12T03:44:22.393Z,77.82
2022-09-12T03:44:34.268Z,77.74
2022-09-12T03:44:46.156Z,77.73
2022-09-12T03:44:58.123Z,77.67
2022-09-12T03:45:11.116Z,77.45
2022-09-12T03:45:23.027Z,77.53